sensor_id;sensor_type;location;lat;lon;timestamp;P1;durP1;ratioP1;P2;durP2;ratioP2
41921;SDS011;27609;51.002;5.354;2022-10-18T00:01:55;10.80;;;6.43;;
41921;SDS011;27609;51.002;5.354;2022-10-18T00:04:21;16.13;;;7.28;;
41921;SDS011;27609;51.002;5.354;2022-10-18T00:06:47;9.60;;;6.30;;
41921;SDS011;27609;51.002;5.354;2022-10-18T00:09:13;6.85;;;5.97;;
41921;SDS011;27609;51.002;5.354;2022-10-18T00:11:39;11.38;;;6.47;;
41921;SDS011;27609;51.002;5.354;2022-10-18T00:14:04;7.40;;;6.28;;
41921;SDS011;27609;51.002;5.354;2022-10-18T00:16:30;8.75;;;5.60;;
41921;SDS011;27609;51.002;5.354;2022-10-18T00:18:56;7.97;;;6.15;;
41921;SDS011;27609;51.002;5.354;2022-10-18T00:21:22;8.82;;;6.70;;
41921;SDS011;27609;51.002;5.354;2022-10-18T00:23:49;6.97;;;6.20;;
41921;SDS011;27609;51.002;5.354;2022-10-18T00:26:23;9.00;;;7.55;;
41921;SDS011;27609;51.002;5.354;2022-10-18T00:28:54;9.45;;;7.07;;
41921;SDS011;27609;51.002;5.354;2022-10-18T00:31:22;9.70;;;6.75;;
41921;SDS011;27609;51.002;5.354;2022-10-18T00:33:55;8.63;;;7.05;;
41921;SDS011;27609;51.002;5.354;2022-10-18T00:36:22;7.70;;;6.78;;
41921;SDS011;27609;51.002;5.354;2022-10-18T00:38:49;8.07;;;6.47;;
41921;SDS011;27609;51.002;5.354;2022-10-18T00:41:16;10.15;;;7.20;;
41921;SDS011;27609;51.002;5.354;2022-10-18T00:46:47;10.73;;;7.30;;
41921;SDS011;27609;51.002;5.354;2022-10-18T00:49:15;8.35;;;6.47;;
41921;SDS011;27609;51.002;5.354;2022-10-18T00:52:03;12.00;;;7.10;;
41921;SDS011;27609;51.002;5.354;2022-10-18T00:54:30;9.27;;;7.03;;
41921;SDS011;27609;51.002;5.354;2022-10-18T00:56:57;9.60;;;7.18;;
41921;SDS011;27609;51.002;5.354;2022-10-18T00:59:23;8.50;;;6.93;;
41921;SDS011;27609;51.002;5.354;2022-10-18T01:01:50;12.85;;;7.50;;
41921;SDS011;27609;51.002;5.354;2022-10-18T01:04:16;8.65;;;7.03;;
41921;SDS011;27609;51.002;5.354;2022-10-18T01:06:54;7.68;;;6.10;;
41921;SDS011;27609;51.002;5.354;2022-10-18T01:09:42;8.57;;;6.80;;
41921;SDS011;27609;51.002;5.354;2022-10-18T01:12:21;15.07;;;7.18;;
41921;SDS011;27609;51.002;5.354;2022-10-18T01:15:36;11.82;;;7.45;;
41921;SDS011;27609;51.002;5.354;2022-10-18T01:31:57;14.60;;;9.50;;
41921;SDS011;27609;51.002;5.354;2022-10-18T01:34:32;14.35;;;8.60;;
41921;SDS011;27609;51.002;5.354;2022-10-18T01:37:00;12.73;;;8.90;;
41921;SDS011;27609;51.002;5.354;2022-10-18T01:39:30;12.25;;;8.93;;
41921;SDS011;27609;51.002;5.354;2022-10-18T01:41:59;14.88;;;8.95;;
41921;SDS011;27609;51.002;5.354;2022-10-18T01:44:28;15.18;;;10.52;;
41921;SDS011;27609;51.002;5.354;2022-10-18T01:46:57;17.20;;;9.75;;
41921;SDS011;27609;51.002;5.354;2022-10-18T01:49:24;21.02;;;11.18;;
41921;SDS011;27609;51.002;5.354;2022-10-18T01:51:50;25.38;;;16.85;;
41921;SDS011;27609;51.002;5.354;2022-10-18T01:54:18;21.00;;;14.43;;
41921;SDS011;27609;51.002;5.354;2022-10-18T01:56:58;18.55;;;11.38;;
41921;SDS011;27609;51.002;5.354;2022-10-18T01:59:38;16.27;;;9.50;;
41921;SDS011;27609;51.002;5.354;2022-10-18T02:02:25;19.20;;;10.63;;
41921;SDS011;27609;51.002;5.354;2022-10-18T02:04:54;19.15;;;11.07;;
41921;SDS011;27609;51.002;5.354;2022-10-18T02:07:35;20.98;;;12.27;;
41921;SDS011;27609;51.002;5.354;2022-10-18T02:10:09;18.98;;;12.00;;
41921;SDS011;27609;51.002;5.354;2022-10-18T02:12:39;19.13;;;13.10;;
41921;SDS011;27609;51.002;5.354;2022-10-18T02:15:07;24.02;;;11.93;;
41921;SDS011;27609;51.002;5.354;2022-10-18T02:17:36;17.50;;;10.90;;
41921;SDS011;27609;51.002;5.354;2022-10-18T02:20:04;14.13;;;9.90;;
41921;SDS011;27609;51.002;5.354;2022-10-18T02:22:32;16.42;;;9.98;;
41921;SDS011;27609;51.002;5.354;2022-10-18T02:25:02;15.20;;;10.43;;
41921;SDS011;27609;51.002;5.354;2022-10-18T02:27:34;18.13;;;10.60;;
41921;SDS011;27609;51.002;5.354;2022-10-18T02:30:01;16.27;;;10.35;;
41921;SDS011;27609;51.002;5.354;2022-10-18T02:32:34;19.58;;;11.75;;
41921;SDS011;27609;51.002;5.354;2022-10-18T02:35:28;19.10;;;11.30;;
41921;SDS011;27609;51.002;5.354;2022-10-18T02:37:58;22.85;;;10.25;;
41921;SDS011;27609;51.002;5.354;2022-10-18T02:40:24;19.85;;;11.70;;
41921;SDS011;27609;51.002;5.354;2022-10-18T02:42:54;15.23;;;10.05;;
41921;SDS011;27609;51.002;5.354;2022-10-18T02:45:21;20.63;;;10.23;;
41921;SDS011;27609;51.002;5.354;2022-10-18T02:47:48;21.52;;;10.63;;
41921;SDS011;27609;51.002;5.354;2022-10-18T02:50:14;18.55;;;10.90;;
41921;SDS011;27609;51.002;5.354;2022-10-18T02:52:40;19.80;;;10.77;;
41921;SDS011;27609;51.002;5.354;2022-10-18T02:55:06;18.42;;;10.50;;
41921;SDS011;27609;51.002;5.354;2022-10-18T02:57:32;22.35;;;10.45;;
41921;SDS011;27609;51.002;5.354;2022-10-18T02:59:58;18.73;;;10.43;;
41921;SDS011;27609;51.002;5.354;2022-10-18T03:02:24;13.35;;;9.52;;
41921;SDS011;27609;51.002;5.354;2022-10-18T03:04:50;17.55;;;10.70;;
41921;SDS011;27609;51.002;5.354;2022-10-18T03:07:16;19.50;;;9.73;;
41921;SDS011;27609;51.002;5.354;2022-10-18T03:09:41;20.67;;;9.30;;
41921;SDS011;27609;51.002;5.354;2022-10-18T03:12:07;18.63;;;11.27;;
41921;SDS011;27609;51.002;5.354;2022-10-18T03:14:33;14.48;;;9.32;;
41921;SDS011;27609;51.002;5.354;2022-10-18T03:16:58;14.50;;;9.20;;
41921;SDS011;27609;51.002;5.354;2022-10-18T03:19:24;14.70;;;9.23;;
41921;SDS011;27609;51.002;5.354;2022-10-18T03:21:50;15.60;;;10.25;;
41921;SDS011;27609;51.002;5.354;2022-10-18T03:24:15;17.77;;;10.48;;
41921;SDS011;27609;51.002;5.354;2022-10-18T03:26:41;15.73;;;10.63;;
41921;SDS011;27609;51.002;5.354;2022-10-18T03:29:08;13.70;;;9.85;;
41921;SDS011;27609;51.002;5.354;2022-10-18T03:31:34;15.85;;;11.02;;
41921;SDS011;27609;51.002;5.354;2022-10-18T03:34:00;18.63;;;10.43;;
41921;SDS011;27609;51.002;5.354;2022-10-18T03:36:25;20.70;;;9.98;;
41921;SDS011;27609;51.002;5.354;2022-10-18T03:38:51;16.23;;;10.63;;
41921;SDS011;27609;51.002;5.354;2022-10-18T03:41:17;22.05;;;9.98;;
41921;SDS011;27609;51.002;5.354;2022-10-18T03:43:44;14.65;;;9.35;;
41921;SDS011;27609;51.002;5.354;2022-10-18T03:46:10;16.90;;;9.25;;
41921;SDS011;27609;51.002;5.354;2022-10-18T03:48:36;19.42;;;10.95;;
41921;SDS011;27609;51.002;5.354;2022-10-18T03:51:02;13.55;;;9.75;;
41921;SDS011;27609;51.002;5.354;2022-10-18T03:53:28;15.82;;;9.88;;
41921;SDS011;27609;51.002;5.354;2022-10-18T03:55:54;17.20;;;10.45;;
41921;SDS011;27609;51.002;5.354;2022-10-18T03:58:20;19.67;;;10.18;;
41921;SDS011;27609;51.002;5.354;2022-10-18T04:00:50;15.48;;;10.07;;
41921;SDS011;27609;51.002;5.354;2022-10-18T04:03:17;17.00;;;10.77;;
41921;SDS011;27609;51.002;5.354;2022-10-18T04:05:44;25.38;;;12.23;;
41921;SDS011;27609;51.002;5.354;2022-10-18T04:08:10;19.75;;;10.85;;
41921;SDS011;27609;51.002;5.354;2022-10-18T04:10:37;22.30;;;10.43;;
41921;SDS011;27609;51.002;5.354;2022-10-18T04:13:03;20.38;;;11.13;;
41921;SDS011;27609;51.002;5.354;2022-10-18T04:15:29;19.95;;;11.65;;
41921;SDS011;27609;51.002;5.354;2022-10-18T04:17:55;17.95;;;10.52;;
41921;SDS011;27609;51.002;5.354;2022-10-18T04:20:21;16.67;;;12.13;;
41921;SDS011;27609;51.002;5.354;2022-10-18T04:22:48;24.83;;;12.77;;
41921;SDS011;27609;51.002;5.354;2022-10-18T04:25:14;16.75;;;11.77;;
41921;SDS011;27609;51.002;5.354;2022-10-18T04:27:40;23.77;;;14.65;;
41921;SDS011;27609;51.002;5.354;2022-10-18T04:30:06;22.30;;;14.10;;
41921;SDS011;27609;51.002;5.354;2022-10-18T04:32:32;17.90;;;13.65;;
41921;SDS011;27609;51.002;5.354;2022-10-18T04:34:59;18.17;;;11.90;;
41921;SDS011;27609;51.002;5.354;2022-10-18T04:37:25;18.50;;;12.15;;
41921;SDS011;27609;51.002;5.354;2022-10-18T04:39:51;22.10;;;13.52;;
41921;SDS011;27609;51.002;5.354;2022-10-18T04:42:17;23.27;;;13.82;;
41921;SDS011;27609;51.002;5.354;2022-10-18T04:44:42;20.85;;;14.50;;
41921;SDS011;27609;51.002;5.354;2022-10-18T04:47:08;21.05;;;13.88;;
41921;SDS011;27609;51.002;5.354;2022-10-18T04:49:34;27.52;;;15.90;;
41921;SDS011;27609;51.002;5.354;2022-10-18T04:51:59;25.55;;;15.32;;
41921;SDS011;27609;51.002;5.354;2022-10-18T04:54:25;24.17;;;15.80;;
41921;SDS011;27609;51.002;5.354;2022-10-18T04:56:51;28.23;;;15.40;;
41921;SDS011;27609;51.002;5.354;2022-10-18T04:59:17;29.67;;;16.55;;
41921;SDS011;27609;51.002;5.354;2022-10-18T05:01:43;26.77;;;14.60;;
41921;SDS011;27609;51.002;5.354;2022-10-18T05:04:09;24.90;;;15.48;;
41921;SDS011;27609;51.002;5.354;2022-10-18T05:06:34;25.00;;;14.30;;
41921;SDS011;27609;51.002;5.354;2022-10-18T05:09:00;27.02;;;15.95;;
41921;SDS011;27609;51.002;5.354;2022-10-18T05:11:26;26.08;;;15.57;;
41921;SDS011;27609;51.002;5.354;2022-10-18T05:13:51;31.70;;;15.77;;
41921;SDS011;27609;51.002;5.354;2022-10-18T05:16:17;27.73;;;17.23;;
41921;SDS011;27609;51.002;5.354;2022-10-18T05:18:43;23.70;;;17.08;;
41921;SDS011;27609;51.002;5.354;2022-10-18T05:21:09;27.38;;;15.90;;
41921;SDS011;27609;51.002;5.354;2022-10-18T05:23:36;27.55;;;15.75;;
41921;SDS011;27609;51.002;5.354;2022-10-18T05:26:02;30.02;;;16.98;;
41921;SDS011;27609;51.002;5.354;2022-10-18T05:28:30;23.90;;;17.50;;
41921;SDS011;27609;51.002;5.354;2022-10-18T05:31:03;26.02;;;15.77;;
41921;SDS011;27609;51.002;5.354;2022-10-18T05:33:30;22.73;;;14.43;;
41921;SDS011;27609;51.002;5.354;2022-10-18T05:35:56;20.55;;;14.07;;
41921;SDS011;27609;51.002;5.354;2022-10-18T05:38:22;26.00;;;14.93;;
41921;SDS011;27609;51.002;5.354;2022-10-18T05:40:47;29.50;;;15.27;;
41921;SDS011;27609;51.002;5.354;2022-10-18T05:43:13;22.75;;;13.40;;
41921;SDS011;27609;51.002;5.354;2022-10-18T05:45:39;21.88;;;13.27;;
41921;SDS011;27609;51.002;5.354;2022-10-18T05:48:11;26.35;;;14.90;;
41921;SDS011;27609;51.002;5.354;2022-10-18T05:50:36;28.70;;;15.98;;
41921;SDS011;27609;51.002;5.354;2022-10-18T05:53:02;20.70;;;13.15;;
41921;SDS011;27609;51.002;5.354;2022-10-18T05:55:27;21.13;;;13.70;;
41921;SDS011;27609;51.002;5.354;2022-10-18T05:57:53;27.30;;;14.40;;
41921;SDS011;27609;51.002;5.354;2022-10-18T06:00:19;20.77;;;13.95;;
41921;SDS011;27609;51.002;5.354;2022-10-18T06:02:45;20.83;;;14.23;;
41921;SDS011;27609;51.002;5.354;2022-10-18T06:05:10;21.70;;;13.82;;
41921;SDS011;27609;51.002;5.354;2022-10-18T06:07:36;31.33;;;15.27;;
41921;SDS011;27609;51.002;5.354;2022-10-18T06:10:02;22.85;;;13.55;;
41921;SDS011;27609;51.002;5.354;2022-10-18T06:12:27;24.65;;;13.63;;
41921;SDS011;27609;51.002;5.354;2022-10-18T06:14:53;30.08;;;15.07;;
41921;SDS011;27609;51.002;5.354;2022-10-18T06:17:19;26.58;;;13.98;;
41921;SDS011;27609;51.002;5.354;2022-10-18T06:19:44;28.88;;;13.45;;
41921;SDS011;27609;51.002;5.354;2022-10-18T06:22:10;20.75;;;12.82;;
41921;SDS011;27609;51.002;5.354;2022-10-18T06:24:36;16.98;;;10.75;;
41921;SDS011;27609;51.002;5.354;2022-10-18T06:27:02;19.45;;;12.65;;
41921;SDS011;27609;51.002;5.354;2022-10-18T06:29:32;16.23;;;10.50;;
41921;SDS011;27609;51.002;5.354;2022-10-18T06:32:02;18.83;;;12.02;;
41921;SDS011;27609;51.002;5.354;2022-10-18T06:34:28;36.45;;;14.18;;
41921;SDS011;27609;51.002;5.354;2022-10-18T06:36:54;25.05;;;13.40;;
41921;SDS011;27609;51.002;5.354;2022-10-18T06:39:20;24.40;;;15.07;;
41921;SDS011;27609;51.002;5.354;2022-10-18T06:41:45;33.08;;;14.98;;
41921;SDS011;27609;51.002;5.354;2022-10-18T06:44:12;25.60;;;14.23;;
41921;SDS011;27609;51.002;5.354;2022-10-18T06:46:42;34.97;;;14.27;;
41921;SDS011;27609;51.002;5.354;2022-10-18T06:51:35;35.50;;;15.38;;
41921;SDS011;27609;51.002;5.354;2022-10-18T06:54:01;38.65;;;16.70;;
41921;SDS011;27609;51.002;5.354;2022-10-18T06:56:27;55.35;;;16.38;;
41921;SDS011;27609;51.002;5.354;2022-10-18T06:58:52;54.38;;;15.60;;
41921;SDS011;27609;51.002;5.354;2022-10-18T07:01:18;64.30;;;17.45;;
41921;SDS011;27609;51.002;5.354;2022-10-18T07:03:45;39.92;;;17.45;;
41921;SDS011;27609;51.002;5.354;2022-10-18T07:06:12;39.03;;;15.90;;
41921;SDS011;27609;51.002;5.354;2022-10-18T07:08:39;29.00;;;15.88;;
41921;SDS011;27609;51.002;5.354;2022-10-18T07:11:14;32.13;;;16.45;;
41921;SDS011;27609;51.002;5.354;2022-10-18T07:13:41;46.47;;;17.65;;
41921;SDS011;27609;51.002;5.354;2022-10-18T07:18:35;76.32;;;20.58;;
41921;SDS011;27609;51.002;5.354;2022-10-18T07:23:50;67.63;;;20.95;;
41921;SDS011;27609;51.002;5.354;2022-10-18T07:26:38;171.18;;;20.58;;
41921;SDS011;27609;51.002;5.354;2022-10-18T07:29:07;98.40;;;18.88;;
41921;SDS011;27609;51.002;5.354;2022-10-18T07:31:34;48.90;;;22.92;;
41921;SDS011;27609;51.002;5.354;2022-10-18T07:34:02;93.32;;;22.23;;
41921;SDS011;27609;51.002;5.354;2022-10-18T07:36:29;88.72;;;21.63;;
41921;SDS011;27609;51.002;5.354;2022-10-18T07:38:55;63.22;;;19.70;;
41921;SDS011;27609;51.002;5.354;2022-10-18T07:41:21;70.88;;;18.25;;
41921;SDS011;27609;51.002;5.354;2022-10-18T07:43:48;40.10;;;16.35;;
41921;SDS011;27609;51.002;5.354;2022-10-18T07:46:28;38.78;;;14.55;;
41921;SDS011;27609;51.002;5.354;2022-10-18T07:49:03;43.25;;;14.75;;
41921;SDS011;27609;51.002;5.354;2022-10-18T07:51:29;27.80;;;13.93;;
41921;SDS011;27609;51.002;5.354;2022-10-18T07:53:57;26.02;;;14.52;;
41921;SDS011;27609;51.002;5.354;2022-10-18T07:56:23;26.88;;;14.02;;
41921;SDS011;27609;51.002;5.354;2022-10-18T07:58:52;22.98;;;13.48;;
41921;SDS011;27609;51.002;5.354;2022-10-18T08:01:20;20.52;;;14.07;;
41921;SDS011;27609;51.002;5.354;2022-10-18T08:03:47;25.88;;;14.18;;
41921;SDS011;27609;51.002;5.354;2022-10-18T08:06:14;25.75;;;14.48;;
41921;SDS011;27609;51.002;5.354;2022-10-18T08:08:42;34.15;;;13.63;;
41921;SDS011;27609;51.002;5.354;2022-10-18T08:11:16;25.75;;;14.32;;
41921;SDS011;27609;51.002;5.354;2022-10-18T08:13:43;51.15;;;16.63;;
41921;SDS011;27609;51.002;5.354;2022-10-18T08:16:10;30.70;;;15.50;;
41921;SDS011;27609;51.002;5.354;2022-10-18T08:18:43;27.92;;;14.93;;
41921;SDS011;27609;51.002;5.354;2022-10-18T08:21:10;23.33;;;14.38;;
41921;SDS011;27609;51.002;5.354;2022-10-18T08:23:37;30.98;;;14.95;;
41921;SDS011;27609;51.002;5.354;2022-10-18T08:26:04;32.35;;;14.63;;
41921;SDS011;27609;51.002;5.354;2022-10-18T08:28:35;24.77;;;14.02;;
41921;SDS011;27609;51.002;5.354;2022-10-18T08:31:15;22.63;;;14.15;;
41921;SDS011;27609;51.002;5.354;2022-10-18T08:33:42;23.75;;;14.68;;
41921;SDS011;27609;51.002;5.354;2022-10-18T08:36:09;28.70;;;17.20;;
41921;SDS011;27609;51.002;5.354;2022-10-18T08:38:37;28.98;;;19.17;;
41921;SDS011;27609;51.002;5.354;2022-10-18T08:44:05;28.27;;;19.63;;
41921;SDS011;27609;51.002;5.354;2022-10-18T08:46:49;29.83;;;18.80;;
41921;SDS011;27609;51.002;5.354;2022-10-18T08:49:21;28.55;;;19.38;;
41921;SDS011;27609;51.002;5.354;2022-10-18T08:51:52;32.42;;;20.38;;
41921;SDS011;27609;51.002;5.354;2022-10-18T08:54:36;35.08;;;22.05;;
41921;SDS011;27609;51.002;5.354;2022-10-18T08:57:14;34.08;;;22.70;;
41921;SDS011;27609;51.002;5.354;2022-10-18T08:59:42;31.73;;;22.30;;
41921;SDS011;27609;51.002;5.354;2022-10-18T09:02:14;33.90;;;23.80;;
41921;SDS011;27609;51.002;5.354;2022-10-18T09:15:12;30.85;;;22.33;;
41921;SDS011;27609;51.002;5.354;2022-10-18T09:20:24;28.48;;;21.00;;
41921;SDS011;27609;51.002;5.354;2022-10-18T09:22:55;28.42;;;20.23;;
41921;SDS011;27609;51.002;5.354;2022-10-18T09:25:43;31.63;;;20.10;;
41921;SDS011;27609;51.002;5.354;2022-10-18T09:28:15;26.30;;;20.13;;
41921;SDS011;27609;51.002;5.354;2022-10-18T09:30:47;34.63;;;19.02;;
41921;SDS011;27609;51.002;5.354;2022-10-18T09:36:04;29.00;;;19.43;;
41921;SDS011;27609;51.002;5.354;2022-10-18T09:38:36;27.33;;;18.35;;
41921;SDS011;27609;51.002;5.354;2022-10-18T09:44:20;34.58;;;19.27;;
41921;SDS011;27609;51.002;5.354;2022-10-18T09:46:56;28.52;;;17.90;;
41921;SDS011;27609;51.002;5.354;2022-10-18T09:49:30;25.20;;;18.13;;
41921;SDS011;27609;51.002;5.354;2022-10-18T09:52:01;34.88;;;16.85;;
41921;SDS011;27609;51.002;5.354;2022-10-18T09:54:37;28.00;;;16.75;;
41921;SDS011;27609;51.002;5.354;2022-10-18T09:59:59;26.15;;;14.40;;
41921;SDS011;27609;51.002;5.354;2022-10-18T10:02:27;26.58;;;13.80;;
41921;SDS011;27609;51.002;5.354;2022-10-18T10:04:53;28.08;;;14.48;;
41921;SDS011;27609;51.002;5.354;2022-10-18T10:09:58;26.98;;;13.60;;
41921;SDS011;27609;51.002;5.354;2022-10-18T10:12:36;23.55;;;13.02;;
41921;SDS011;27609;51.002;5.354;2022-10-18T10:17:53;22.58;;;11.43;;
41921;SDS011;27609;51.002;5.354;2022-10-18T10:20:43;19.17;;;8.95;;
41921;SDS011;27609;51.002;5.354;2022-10-18T10:25:53;19.30;;;8.25;;
41921;SDS011;27609;51.002;5.354;2022-10-18T10:28:32;18.42;;;8.68;;
41921;SDS011;27609;51.002;5.354;2022-10-18T10:33:57;14.05;;;7.25;;
41921;SDS011;27609;51.002;5.354;2022-10-18T10:36:31;15.57;;;6.88;;
41921;SDS011;27609;51.002;5.354;2022-10-18T10:41:31;11.27;;;7.03;;
41921;SDS011;27609;51.002;5.354;2022-10-18T10:43:58;16.42;;;7.10;;
41921;SDS011;27609;51.002;5.354;2022-10-18T10:46:32;12.20;;;6.60;;
41921;SDS011;27609;51.002;5.354;2022-10-18T10:48:59;11.75;;;5.65;;
41921;SDS011;27609;51.002;5.354;2022-10-18T10:51:37;9.05;;;4.80;;
41921;SDS011;27609;51.002;5.354;2022-10-18T10:54:04;17.40;;;7.13;;
41921;SDS011;27609;51.002;5.354;2022-10-18T10:56:53;17.27;;;7.18;;
41921;SDS011;27609;51.002;5.354;2022-10-18T11:04:41;15.52;;;5.93;;
41921;SDS011;27609;51.002;5.354;2022-10-18T11:12:25;14.73;;;5.57;;
41921;SDS011;27609;51.002;5.354;2022-10-18T11:17:42;10.93;;;4.78;;
41921;SDS011;27609;51.002;5.354;2022-10-18T11:20:34;11.38;;;5.03;;
41921;SDS011;27609;51.002;5.354;2022-10-18T11:23:06;12.32;;;5.15;;
41921;SDS011;27609;51.002;5.354;2022-10-18T11:25:57;10.75;;;4.95;;
41921;SDS011;27609;51.002;5.354;2022-10-18T11:31:19;12.55;;;4.57;;
41921;SDS011;27609;51.002;5.354;2022-10-18T11:51:34;12.38;;;3.75;;
41921;SDS011;27609;51.002;5.354;2022-10-18T11:54:20;11.38;;;3.83;;
41921;SDS011;27609;51.002;5.354;2022-10-18T12:05:12;8.75;;;3.10;;
41921;SDS011;27609;51.002;5.354;2022-10-18T12:07:41;8.27;;;2.97;;
41921;SDS011;27609;51.002;5.354;2022-10-18T12:10:14;12.50;;;3.60;;
41921;SDS011;27609;51.002;5.354;2022-10-18T12:12:53;11.75;;;3.35;;
41921;SDS011;27609;51.002;5.354;2022-10-18T12:15:24;8.73;;;3.28;;
41921;SDS011;27609;51.002;5.354;2022-10-18T12:18:04;9.43;;;2.80;;
41921;SDS011;27609;51.002;5.354;2022-10-18T12:20:35;6.97;;;2.60;;
41921;SDS011;27609;51.002;5.354;2022-10-18T12:26:03;9.82;;;3.00;;
41921;SDS011;27609;51.002;5.354;2022-10-18T12:33:42;9.50;;;2.92;;
41921;SDS011;27609;51.002;5.354;2022-10-18T12:38:48;7.00;;;2.53;;
41921;SDS011;27609;51.002;5.354;2022-10-18T12:41:20;10.38;;;2.92;;
41921;SDS011;27609;51.002;5.354;2022-10-18T12:43:51;14.63;;;2.88;;
41921;SDS011;27609;51.002;5.354;2022-10-18T12:46:18;8.87;;;2.87;;
41921;SDS011;27609;51.002;5.354;2022-10-18T12:48:48;9.00;;;2.60;;
41921;SDS011;27609;51.002;5.354;2022-10-18T12:51:26;6.70;;;2.72;;
41921;SDS011;27609;51.002;5.354;2022-10-18T12:53:53;10.93;;;2.42;;
41921;SDS011;27609;51.002;5.354;2022-10-18T12:58:57;10.55;;;2.70;;
41921;SDS011;27609;51.002;5.354;2022-10-18T13:09:31;5.63;;;1.80;;
41921;SDS011;27609;51.002;5.354;2022-10-18T13:20:31;7.05;;;2.13;;
41921;SDS011;27609;51.002;5.354;2022-10-18T13:23:24;10.10;;;2.35;;
41921;SDS011;27609;51.002;5.354;2022-10-18T13:37:03;10.55;;;2.28;;
41921;SDS011;27609;51.002;5.354;2022-10-18T13:39:35;10.10;;;2.45;;
41921;SDS011;27609;51.002;5.354;2022-10-18T13:44:32;12.40;;;2.78;;
41921;SDS011;27609;51.002;5.354;2022-10-18T13:57:57;9.27;;;2.20;;
41921;SDS011;27609;51.002;5.354;2022-10-18T14:03:34;7.90;;;2.03;;
41921;SDS011;27609;51.002;5.354;2022-10-18T14:08:40;8.80;;;2.28;;
41921;SDS011;27609;51.002;5.354;2022-10-18T14:16:46;7.50;;;2.55;;
41921;SDS011;27609;51.002;5.354;2022-10-18T14:19:37;12.23;;;2.45;;
41921;SDS011;27609;51.002;5.354;2022-10-18T14:22:11;10.75;;;1.98;;
41921;SDS011;27609;51.002;5.354;2022-10-18T14:24:55;11.27;;;2.53;;
41921;SDS011;27609;51.002;5.354;2022-10-18T14:27:30;9.85;;;2.50;;
41921;SDS011;27609;51.002;5.354;2022-10-18T14:32:44;7.82;;;2.33;;
41921;SDS011;27609;51.002;5.354;2022-10-18T14:35:19;13.13;;;2.70;;
41921;SDS011;27609;51.002;5.354;2022-10-18T14:37:47;9.88;;;1.88;;
41921;SDS011;27609;51.002;5.354;2022-10-18T14:40:27;13.15;;;2.75;;
41921;SDS011;27609;51.002;5.354;2022-10-18T14:43:03;6.63;;;2.15;;
41921;SDS011;27609;51.002;5.354;2022-10-18T14:45:36;7.57;;;2.35;;
41921;SDS011;27609;51.002;5.354;2022-10-18T14:48:06;7.88;;;2.03;;
41921;SDS011;27609;51.002;5.354;2022-10-18T14:50:38;5.07;;;2.00;;
41921;SDS011;27609;51.002;5.354;2022-10-18T14:53:05;7.82;;;2.25;;
41921;SDS011;27609;51.002;5.354;2022-10-18T14:55:33;4.68;;;2.58;;
41921;SDS011;27609;51.002;5.354;2022-10-18T14:58:00;6.57;;;3.08;;
41921;SDS011;27609;51.002;5.354;2022-10-18T15:00:33;8.70;;;2.30;;
41921;SDS011;27609;51.002;5.354;2022-10-18T15:03:02;7.82;;;2.13;;
41921;SDS011;27609;51.002;5.354;2022-10-18T15:05:30;9.73;;;2.03;;
41921;SDS011;27609;51.002;5.354;2022-10-18T15:07:55;7.22;;;2.08;;
41921;SDS011;27609;51.002;5.354;2022-10-18T15:10:28;6.32;;;2.40;;
41921;SDS011;27609;51.002;5.354;2022-10-18T15:12:56;16.08;;;4.30;;
41921;SDS011;27609;51.002;5.354;2022-10-18T15:17:53;10.88;;;2.72;;
41921;SDS011;27609;51.002;5.354;2022-10-18T15:20:21;12.35;;;2.42;;
41921;SDS011;27609;51.002;5.354;2022-10-18T15:22:50;9.63;;;3.35;;
41921;SDS011;27609;51.002;5.354;2022-10-18T15:25:21;6.57;;;2.47;;
41921;SDS011;27609;51.002;5.354;2022-10-18T15:27:50;9.57;;;2.70;;
41921;SDS011;27609;51.002;5.354;2022-10-18T15:30:26;14.10;;;3.83;;
41921;SDS011;27609;51.002;5.354;2022-10-18T15:33:00;8.38;;;3.10;;
41921;SDS011;27609;51.002;5.354;2022-10-18T15:35:31;13.80;;;4.13;;
41921;SDS011;27609;51.002;5.354;2022-10-18T15:37:59;9.73;;;2.72;;
41921;SDS011;27609;51.002;5.354;2022-10-18T15:40:37;17.27;;;3.35;;
41921;SDS011;27609;51.002;5.354;2022-10-18T15:43:05;11.85;;;3.35;;
41921;SDS011;27609;51.002;5.354;2022-10-18T15:45:54;11.32;;;3.05;;
41921;SDS011;27609;51.002;5.354;2022-10-18T15:48:34;10.88;;;3.80;;
41921;SDS011;27609;51.002;5.354;2022-10-18T15:51:03;12.40;;;3.28;;
41921;SDS011;27609;51.002;5.354;2022-10-18T15:56:00;16.90;;;3.22;;
41921;SDS011;27609;51.002;5.354;2022-10-18T15:58:44;13.52;;;2.90;;
41921;SDS011;27609;51.002;5.354;2022-10-18T16:01:15;8.23;;;2.97;;
41921;SDS011;27609;51.002;5.354;2022-10-18T16:03:44;10.10;;;3.33;;
41921;SDS011;27609;51.002;5.354;2022-10-18T16:06:11;9.10;;;2.78;;
41921;SDS011;27609;51.002;5.354;2022-10-18T16:08:42;14.05;;;2.95;;
41921;SDS011;27609;51.002;5.354;2022-10-18T16:11:15;11.65;;;2.60;;
41921;SDS011;27609;51.002;5.354;2022-10-18T16:16:12;10.40;;;3.33;;
41921;SDS011;27609;51.002;5.354;2022-10-18T16:18:44;9.88;;;2.95;;
41921;SDS011;27609;51.002;5.354;2022-10-18T16:21:20;10.48;;;2.95;;
41921;SDS011;27609;51.002;5.354;2022-10-18T16:23:48;6.78;;;2.50;;
41921;SDS011;27609;51.002;5.354;2022-10-18T16:26:15;10.05;;;2.78;;
41921;SDS011;27609;51.002;5.354;2022-10-18T16:28:41;13.60;;;3.15;;
41921;SDS011;27609;51.002;5.354;2022-10-18T16:31:09;9.93;;;2.80;;
41921;SDS011;27609;51.002;5.354;2022-10-18T16:33:39;13.88;;;2.90;;
41921;SDS011;27609;51.002;5.354;2022-10-18T16:36:05;12.38;;;3.13;;
41921;SDS011;27609;51.002;5.354;2022-10-18T16:38:34;10.77;;;3.35;;
41921;SDS011;27609;51.002;5.354;2022-10-18T16:41:02;12.30;;;3.10;;
41921;SDS011;27609;51.002;5.354;2022-10-18T16:43:29;14.13;;;2.50;;
41921;SDS011;27609;51.002;5.354;2022-10-18T16:45:56;9.20;;;2.50;;
41921;SDS011;27609;51.002;5.354;2022-10-18T16:48:22;14.27;;;2.40;;
41921;SDS011;27609;51.002;5.354;2022-10-18T16:50:50;12.20;;;2.55;;
41921;SDS011;27609;51.002;5.354;2022-10-18T16:53:16;8.23;;;2.30;;
41921;SDS011;27609;51.002;5.354;2022-10-18T16:55:49;11.55;;;2.47;;
41921;SDS011;27609;51.002;5.354;2022-10-18T16:58:20;14.80;;;3.00;;
41921;SDS011;27609;51.002;5.354;2022-10-18T17:00:46;11.85;;;2.25;;
41921;SDS011;27609;51.002;5.354;2022-10-18T17:03:12;11.88;;;3.20;;
41921;SDS011;27609;51.002;5.354;2022-10-18T17:05:39;10.05;;;2.83;;
41921;SDS011;27609;51.002;5.354;2022-10-18T17:08:06;13.60;;;3.38;;
41921;SDS011;27609;51.002;5.354;2022-10-18T17:10:32;10.13;;;2.83;;
41921;SDS011;27609;51.002;5.354;2022-10-18T17:12:57;14.23;;;3.25;;
41921;SDS011;27609;51.002;5.354;2022-10-18T17:15:23;13.13;;;3.83;;
41921;SDS011;27609;51.002;5.354;2022-10-18T17:17:49;19.75;;;4.07;;
41921;SDS011;27609;51.002;5.354;2022-10-18T17:20:18;14.88;;;3.25;;
41921;SDS011;27609;51.002;5.354;2022-10-18T17:22:47;9.35;;;3.33;;
41921;SDS011;27609;51.002;5.354;2022-10-18T17:25:13;15.40;;;4.00;;
41921;SDS011;27609;51.002;5.354;2022-10-18T17:27:39;11.38;;;3.80;;
41921;SDS011;27609;51.002;5.354;2022-10-18T17:30:05;12.35;;;3.97;;
41921;SDS011;27609;51.002;5.354;2022-10-18T17:32:31;16.05;;;4.93;;
41921;SDS011;27609;51.002;5.354;2022-10-18T17:34:57;16.35;;;4.50;;
41921;SDS011;27609;51.002;5.354;2022-10-18T17:37:24;14.85;;;4.68;;
41921;SDS011;27609;51.002;5.354;2022-10-18T17:39:50;14.95;;;4.97;;
41921;SDS011;27609;51.002;5.354;2022-10-18T17:42:15;21.45;;;5.45;;
41921;SDS011;27609;51.002;5.354;2022-10-18T17:44:41;15.20;;;5.30;;
41921;SDS011;27609;51.002;5.354;2022-10-18T17:47:08;24.17;;;6.22;;